PLF113 EPKK-EPKK
Flight info
| Callsign | PLF113 |
|---|---|
| Flight time | N/A |
| Altitude | 5500 |
| Route | EPKKK EPKKS STAY01/0030/ EPKKS EPKKK |
| Aircraft | AN28/L-SFG/C |
Departure
| Time | 2026-05-06 18:24 |
|---|---|
| Airport | Kraków John Paul II International Airport (EPKK) |
Arrival
| Time | N/A |
|---|---|
| Airport | Kraków John Paul II International Airport (EPKK) |
| Time | Latitude | Longitude | Altitude | Speed | Heading |
|---|---|---|---|---|---|
| 2026-05-06 17:56 | 50.07605 | 19.79459 | 788 ft | 0 kts | 348° |
| 2026-05-06 18:17 | 50.07605 | 19.79458 | 788 ft | 1 kts | 347° |
| 2026-05-06 18:17 | 50.07666 | 19.79528 | 788 ft | 18 kts | 72° |
| 2026-05-06 18:18 | 50.07692 | 19.79720 | 788 ft | 17 kts | 77° |
| 2026-05-06 18:18 | 50.07716 | 19.79893 | 788 ft | 15 kts | 77° |
| 2026-05-06 18:18 | 50.07738 | 19.80050 | 788 ft | 14 kts | 77° |
| 2026-05-06 18:18 | 50.07758 | 19.80200 | 788 ft | 14 kts | 78° |
| 2026-05-06 18:19 | 50.07786 | 19.80337 | 788 ft | 13 kts | 38° |
| 2026-05-06 18:19 | 50.07845 | 19.80336 | 788 ft | 0 kts | 347° |
| 2026-05-06 18:22 | 50.07954 | 19.80299 | 788 ft | 27 kts | 342° |
| 2026-05-06 18:22 | 50.07999 | 19.80094 | 788 ft | 22 kts | 252° |
| 2026-05-06 18:22 | 50.07973 | 19.79903 | 787 ft | 0 kts | 231° |
| 2026-05-06 18:22 | 50.07972 | 19.79899 | 787 ft | 0 kts | 257° |
| 2026-05-06 18:23 | 50.07969 | 19.79877 | 787 ft | 6 kts | 257° |
| 2026-05-06 18:23 | 50.07940 | 19.79569 | 789 ft | 67 kts | 264° |
| 2026-05-06 18:23 | 50.07769 | 19.78642 | 813 ft | 108 kts | 267° |
| 2026-05-06 18:24 | 50.07618 | 19.77436 | 1014 ft | 127 kts | 257° |
| 2026-05-06 18:24 | 50.06911 | 19.76650 | 1366 ft | 142 kts | 175° |
| 2026-05-06 18:24 | 50.05960 | 19.77304 | 1345 ft | 165 kts | 143° |
| 2026-05-06 18:24 | 50.04962 | 19.78363 | 1413 ft | 177 kts | 144° |
| 2026-05-06 18:25 | 50.03917 | 19.79410 | 1519 ft | 182 kts | 145° |
| 2026-05-06 18:25 | 50.02871 | 19.80475 | 1795 ft | 175 kts | 146° |
| 2026-05-06 18:25 | 50.01896 | 19.81486 | 2156 ft | 165 kts | 149° |
| 2026-05-06 18:25 | 50.00877 | 19.82410 | 2221 ft | 174 kts | 153° |
| 2026-05-06 18:26 | 49.99795 | 19.83282 | 2313 ft | 177 kts | 155° |
| 2026-05-06 18:26 | 49.98693 | 19.84148 | 2390 ft | 178 kts | 154° |
| 2026-05-06 18:26 | 49.97584 | 19.85044 | 2447 ft | 181 kts | 154° |
| 2026-05-06 18:26 | 49.96464 | 19.85970 | 2458 ft | 183 kts | 154° |
| 2026-05-06 18:27 | 49.95332 | 19.86927 | 2373 ft | 189 kts | 152° |
| 2026-05-06 18:27 | 49.94171 | 19.87928 | 2302 ft | 191 kts | 152° |
| 2026-05-06 18:27 | 49.93008 | 19.88954 | 2262 ft | 192 kts | 152° |
| 2026-05-06 18:27 | 49.91851 | 19.89992 | 2200 ft | 192 kts | 152° |
| 2026-05-06 18:28 | 49.90704 | 19.90981 | 2216 ft | 188 kts | 153° |
| 2026-05-06 18:28 | 49.89670 | 19.91961 | 2741 ft | 157 kts | 147° |
| 2026-05-06 18:28 | 49.88866 | 19.92954 | 3348 ft | 143 kts | 146° |
| 2026-05-06 18:28 | 49.88112 | 19.93959 | 3798 ft | 141 kts | 144° |
| 2026-05-06 18:29 | 49.87405 | 19.94990 | 4290 ft | 139 kts | 143° |
| 2026-05-06 18:29 | 49.86713 | 19.96072 | 4678 ft | 142 kts | 141° |
| 2026-05-06 18:29 | 49.86079 | 19.97209 | 5155 ft | 137 kts | 136° |
| 2026-05-06 18:29 | 49.85715 | 19.98646 | 5528 ft | 146 kts | 115° |
| 2026-05-06 18:30 | 49.85472 | 20.00175 | 5897 ft | 153 kts | 111° |
| 2026-05-06 18:30 | 49.85228 | 20.01989 | 5604 ft | 190 kts | 106° |
| 2026-05-06 18:30 | 49.85051 | 20.04131 | 5371 ft | 204 kts | 102° |
| 2026-05-06 18:30 | 49.84935 | 20.06381 | 5062 ft | 215 kts | 96° |
| 2026-05-06 18:31 | 49.85089 | 20.08661 | 5018 ft | 209 kts | 89° |
| 2026-05-06 18:31 | 49.85259 | 20.10884 | 5055 ft | 206 kts | 88° |
| 2026-05-06 18:31 | 49.85445 | 20.13065 | 5172 ft | 201 kts | 87° |
| 2026-05-06 18:31 | 49.85559 | 20.15163 | 5352 ft | 191 kts | 92° |
| 2026-05-06 18:32 | 49.85811 | 20.17138 | 5569 ft | 192 kts | 66° |
| 2026-05-06 18:32 | 49.86758 | 20.18626 | 5555 ft | 204 kts | 24° |
| 2026-05-06 18:32 | 49.88129 | 20.18479 | 5429 ft | 203 kts | 326° |
| 2026-05-06 18:32 | 49.88994 | 20.16882 | 5385 ft | 191 kts | 288° |
| 2026-05-06 18:33 | 49.89252 | 20.14921 | 5381 ft | 181 kts | 266° |
| 2026-05-06 18:33 | 49.88991 | 20.13103 | 5367 ft | 169 kts | 241° |
| 2026-05-06 18:33 | 49.88201 | 20.11800 | 5360 ft | 169 kts | 210° |
| 2026-05-06 18:33 | 49.87041 | 20.11488 | 5365 ft | 174 kts | 178° |
| 2026-05-06 18:34 | 49.85885 | 20.12150 | 5364 ft | 182 kts | 155° |
| 2026-05-06 18:34 | 49.84911 | 20.13403 | 5411 ft | 186 kts | 140° |
| 2026-05-06 18:34 | 49.84321 | 20.15188 | 5436 ft | 196 kts | 102° |
| 2026-05-06 18:34 | 49.84809 | 20.17198 | 5440 ft | 212 kts | 47° |
| 2026-05-06 18:35 | 49.86146 | 20.18015 | 5469 ft | 210 kts | 356° |
| 2026-05-06 18:35 | 49.87431 | 20.17195 | 5502 ft | 197 kts | 311° |
| 2026-05-06 18:35 | 49.87998 | 20.15396 | 5541 ft | 182 kts | 270° |
| 2026-05-06 18:35 | 49.87716 | 20.13583 | 5589 ft | 172 kts | 236° |
| 2026-05-06 18:36 | 49.86827 | 20.12402 | 5599 ft | 171 kts | 206° |
| 2026-05-06 18:36 | 49.85661 | 20.12075 | 5637 ft | 173 kts | 179° |
| 2026-05-06 18:36 | 49.84549 | 20.12860 | 5635 ft | 184 kts | 143° |
| 2026-05-06 18:36 | 49.84460 | 20.14786 | 5760 ft | 194 kts | 80° |
| 2026-05-06 18:37 | 49.84811 | 20.16836 | 5848 ft | 199 kts | 79° |
| 2026-05-06 18:37 | 49.85056 | 20.18239 | 5904 ft | 200 kts | 79° |
| 2026-05-06 18:37 | 49.86481 | 20.19243 | 5740 ft | 199 kts | 323° |
| 2026-05-06 18:37 | 49.87049 | 20.17482 | 5389 ft | 183 kts | 264° |
| 2026-05-06 18:38 | 49.86986 | 20.15470 | 5233 ft | 188 kts | 262° |
| 2026-05-06 18:38 | 49.86910 | 20.13489 | 5348 ft | 179 kts | 262° |
| 2026-05-06 18:38 | 49.86383 | 20.12195 | 5521 ft | 141 kts | 194° |
| 2026-05-06 18:38 | 49.85406 | 20.12248 | 5507 ft | 148 kts | 172° |
| 2026-05-06 18:39 | 49.84543 | 20.13303 | 5607 ft | 171 kts | 131° |
| 2026-05-06 18:39 | 49.84471 | 20.15123 | 5604 ft | 179 kts | 78° |
| 2026-05-06 18:39 | 49.84923 | 20.17035 | 5584 ft | 196 kts | 73° |
| 2026-05-06 18:40 | 49.86740 | 20.19544 | 5515 ft | 200 kts | 333° |
| 2026-05-06 18:40 | 49.87599 | 20.18020 | 5443 ft | 185 kts | 282° |
| 2026-05-06 18:40 | 49.87497 | 20.16131 | 5408 ft | 174 kts | 248° |
| 2026-05-06 18:40 | 49.87130 | 20.14336 | 5404 ft | 175 kts | 250° |
| 2026-05-06 18:41 | 49.86790 | 20.12514 | 5406 ft | 172 kts | 246° |
| 2026-05-06 18:41 | 49.85961 | 20.11399 | 5435 ft | 167 kts | 198° |
| 2026-05-06 18:41 | 49.84817 | 20.11528 | 5457 ft | 173 kts | 159° |
| 2026-05-06 18:41 | 49.84438 | 20.13208 | 5327 ft | 200 kts | 77° |
| 2026-05-06 18:42 | 49.84875 | 20.15288 | 5232 ft | 208 kts | 76° |
| 2026-05-06 18:42 | 49.85320 | 20.17457 | 5146 ft | 213 kts | 76° |
| 2026-05-06 18:42 | 49.86223 | 20.19118 | 4691 ft | 219 kts | 17° |
| 2026-05-06 18:42 | 49.87487 | 20.18519 | 4669 ft | 185 kts | 308° |
| 2026-05-06 18:43 | 49.87942 | 20.17128 | 5592 ft | 135 kts | 273° |
| 2026-05-06 18:43 | 49.87996 | 20.15598 | 5686 ft | 151 kts | 262° |
| 2026-05-06 18:43 | 49.87911 | 20.13945 | 5780 ft | 157 kts | 257° |
| 2026-05-06 18:43 | 49.87646 | 20.12266 | 5748 ft | 162 kts | 243° |
| 2026-05-06 18:44 | 49.87033 | 20.10812 | 5763 ft | 159 kts | 222° |
| 2026-05-06 18:44 | 49.86021 | 20.10233 | 5713 ft | 166 kts | 180° |
| 2026-05-06 18:44 | 49.84949 | 20.10993 | 5621 ft | 183 kts | 143° |
| 2026-05-06 18:44 | 49.84533 | 20.12965 | 5209 ft | 215 kts | 93° |
| 2026-05-06 18:45 | 49.84792 | 20.15246 | 5192 ft | 212 kts | 82° |
| 2026-05-06 18:45 | 49.85115 | 20.17478 | 5156 ft | 213 kts | 82° |
| 2026-05-06 18:45 | 49.85537 | 20.19601 | 5148 ft | 206 kts | 59° |
| 2026-05-06 18:45 | 49.86268 | 20.20563 | 5146 ft | 208 kts | 20° |
| 2026-05-06 18:46 | 49.87995 | 20.19940 | 5130 ft | 191 kts | 314° |
| 2026-05-06 18:46 | 49.88742 | 20.18328 | 5202 ft | 180 kts | 290° |
| 2026-05-06 18:46 | 49.88855 | 20.16565 | 5346 ft | 158 kts | 249° |
| 2026-05-06 18:46 | 49.88397 | 20.15140 | 5695 ft | 142 kts | 228° |
| 2026-05-06 18:47 | 49.87591 | 20.14313 | 5862 ft | 147 kts | 189° |
| 2026-05-06 18:47 | 49.86909 | 20.14579 | 5856 ft | 164 kts | 157° |
| 2026-05-06 18:47 | 49.86027 | 20.15682 | 5884 ft | 165 kts | 144° |
| 2026-05-06 18:47 | 49.85407 | 20.17264 | 5956 ft | 184 kts | 108° |
| 2026-05-06 18:48 | 49.85781 | 20.19139 | 6063 ft | 200 kts | 44° |
| 2026-05-06 18:48 | 49.87618 | 20.19796 | 5529 ft | 221 kts | 353° |
| 2026-05-06 18:48 | 49.88648 | 20.19458 | 4928 ft | 216 kts | 338° |
| 2026-05-06 18:48 | 49.89578 | 20.18393 | 4080 ft | 167 kts | 294° |
| 2026-05-06 18:49 | 49.89767 | 20.16728 | 3613 ft | 150 kts | 259° |
| 2026-05-06 18:49 | 49.89587 | 20.15408 | 3068 ft | 137 kts | 251° |
| 2026-05-06 18:49 | 49.89219 | 20.13801 | 2856 ft | 168 kts | 243° |
| 2026-05-06 18:49 | 49.88581 | 20.12230 | 2788 ft | 176 kts | 232° |
| 2026-05-06 18:50 | 49.88487 | 20.12025 | 2777 ft | 176 kts | 232° |
| 2026-05-06 18:50 | 49.88303 | 20.11614 | 2777 ft | 176 kts | 233° |
| 2026-05-06 18:50 | 49.87629 | 20.09925 | 2494 ft | 191 kts | 240° |
| 2026-05-06 18:50 | 49.87046 | 20.08021 | 2284 ft | 190 kts | 246° |
| 2026-05-06 18:51 | 49.86632 | 20.06303 | 2657 ft | 163 kts | 246° |
| 2026-05-06 18:51 | 49.86057 | 20.05198 | 3396 ft | 117 kts | 186° |
| 2026-05-06 18:51 | 49.85573 | 20.06177 | 3839 ft | 147 kts | 97° |
| 2026-05-06 18:51 | 49.85839 | 20.07761 | 4279 ft | 150 kts | 76° |
| 2026-05-06 18:52 | 49.86035 | 20.09270 | 4745 ft | 146 kts | 107° |
| 2026-05-06 18:52 | 49.85616 | 20.10750 | 4954 ft | 151 kts | 126° |
| 2026-05-06 18:52 | 49.85136 | 20.12104 | 5554 ft | 135 kts | 126° |
| 2026-05-06 18:52 | 49.84844 | 20.13487 | 5973 ft | 146 kts | 95° |
| 2026-05-06 18:53 | 49.84838 | 20.15216 | 5635 ft | 186 kts | 96° |
| 2026-05-06 18:53 | 49.84866 | 20.17347 | 5343 ft | 207 kts | 90° |
| 2026-05-06 18:53 | 49.85463 | 20.19401 | 5240 ft | 215 kts | 54° |
| 2026-05-06 18:53 | 49.86482 | 20.21089 | 5229 ft | 214 kts | 46° |
| 2026-05-06 18:54 | 49.87690 | 20.21417 | 5289 ft | 183 kts | 316° |
| 2026-05-06 18:54 | 49.88282 | 20.19983 | 5847 ft | 138 kts | 271° |
| 2026-05-06 18:54 | 49.88041 | 20.18586 | 6039 ft | 139 kts | 244° |
| 2026-05-06 18:54 | 49.87635 | 20.16979 | 5432 ft | 178 kts | 245° |
| 2026-05-06 18:55 | 49.87198 | 20.15216 | 5507 ft | 174 kts | 245° |
| 2026-05-06 18:55 | 49.86786 | 20.13468 | 5565 ft | 170 kts | 248° |
| 2026-05-06 18:55 | 49.86466 | 20.11702 | 5594 ft | 169 kts | 252° |
| 2026-05-06 18:55 | 49.86360 | 20.09883 | 5573 ft | 173 kts | 265° |
| 2026-05-06 18:56 | 49.86445 | 20.07999 | 5396 ft | 183 kts | 268° |
| 2026-05-06 18:56 | 49.86598 | 20.05899 | 4765 ft | 202 kts | 273° |
| 2026-05-06 18:56 | 49.86828 | 20.03820 | 4650 ft | 192 kts | 275° |
| 2026-05-06 18:56 | 49.87180 | 20.01836 | 4503 ft | 192 kts | 284° |
| 2026-05-06 18:57 | 49.87775 | 19.99938 | 4314 ft | 199 kts | 294° |
| 2026-05-06 18:57 | 49.88662 | 19.98211 | 3916 ft | 211 kts | 308° |
| 2026-05-06 18:57 | 49.89709 | 19.96677 | 3813 ft | 202 kts | 315° |
| 2026-05-06 18:57 | 49.90796 | 19.95333 | 3691 ft | 198 kts | 316° |
| 2026-05-06 18:58 | 49.91869 | 19.93994 | 3535 ft | 198 kts | 316° |
| 2026-05-06 18:58 | 49.92929 | 19.92661 | 3509 ft | 193 kts | 315° |
| 2026-05-06 18:58 | 49.93973 | 19.91335 | 3352 ft | 195 kts | 316° |
| 2026-05-06 18:58 | 49.95021 | 19.90061 | 3224 ft | 185 kts | 319° |
| 2026-05-06 18:59 | 49.96046 | 19.88889 | 3022 ft | 181 kts | 320° |
| 2026-05-06 18:59 | 49.97069 | 19.87811 | 2800 ft | 179 kts | 328° |
| 2026-05-06 18:59 | 49.98127 | 19.86915 | 2538 ft | 167 kts | 318° |
| 2026-05-06 18:59 | 49.98627 | 19.85429 | 2371 ft | 154 kts | 267° |
| 2026-05-06 19:00 | 49.98465 | 19.83790 | 2291 ft | 154 kts | 255° |
| 2026-05-06 19:00 | 49.98229 | 19.82188 | 2343 ft | 147 kts | 251° |
| 2026-05-06 19:00 | 49.97490 | 19.81491 | 2403 ft | 148 kts | 163° |
| 2026-05-06 19:00 | 49.97109 | 19.82843 | 2561 ft | 162 kts | 84° |
| 2026-05-06 19:01 | 49.97431 | 19.84575 | 2522 ft | 173 kts | 76° |
| 2026-05-06 19:01 | 49.98398 | 19.85201 | 2388 ft | 161 kts | 352° |
| 2026-05-06 19:01 | 49.99372 | 19.84495 | 2231 ft | 149 kts | 327° |
| 2026-05-06 19:01 | 50.00251 | 19.83689 | 2073 ft | 146 kts | 321° |
| 2026-05-06 19:02 | 50.01094 | 19.82767 | 1790 ft | 148 kts | 321° |
| 2026-05-06 19:02 | 50.01960 | 19.81778 | 1605 ft | 158 kts | 328° |
| 2026-05-06 19:02 | 50.02948 | 19.81007 | 1522 ft | 159 kts | 335° |
| 2026-05-06 19:02 | 50.03979 | 19.80582 | 1524 ft | 151 kts | 0° |
| 2026-05-06 19:03 | 50.04945 | 19.81123 | 1474 ft | 150 kts | 16° |
| 2026-05-06 19:03 | 50.05766 | 19.80513 | 1544 ft | 143 kts | 287° |
| 2026-05-06 19:03 | 50.05488 | 19.79027 | 1676 ft | 143 kts | 236° |
| 2026-05-06 19:03 | 50.05092 | 19.77653 | 1945 ft | 141 kts | 248° |
| 2026-05-06 19:04 | 50.04812 | 19.76155 | 2064 ft | 146 kts | 254° |
| 2026-05-06 19:04 | 50.04557 | 19.74559 | 1973 ft | 164 kts | 253° |
| 2026-05-06 19:04 | 50.04256 | 19.72853 | 1663 ft | 156 kts | 247° |
| 2026-05-06 19:04 | 50.03403 | 19.72079 | 1591 ft | 160 kts | 172° |
| 2026-05-06 19:05 | 50.02981 | 19.73450 | 1598 ft | 162 kts | 70° |
| 2026-05-06 19:05 | 50.03299 | 19.75073 | 1925 ft | 159 kts | 75° |
| 2026-05-06 19:05 | 50.03659 | 19.76820 | 1591 ft | 182 kts | 74° |
| 2026-05-06 19:05 | 50.04340 | 19.78118 | 1745 ft | 146 kts | 1° |
| 2026-05-06 19:06 | 50.04908 | 19.77056 | 1892 ft | 142 kts | 255° |
| 2026-05-06 19:06 | 50.04618 | 19.75507 | 1885 ft | 160 kts | 249° |
| 2026-05-06 19:06 | 50.04211 | 19.73716 | 1589 ft | 184 kts | 252° |
| 2026-05-06 19:06 | 50.03656 | 19.72179 | 1703 ft | 161 kts | 178° |
| 2026-05-06 19:07 | 50.03354 | 19.73474 | 2055 ft | 147 kts | 77° |
| 2026-05-06 19:07 | 50.03666 | 19.75227 | 1848 ft | 181 kts | 77° |
| 2026-05-06 19:07 | 50.03916 | 19.77181 | 1766 ft | 187 kts | 82° |
| 2026-05-06 19:07 | 50.04524 | 19.78752 | 1974 ft | 175 kts | 25° |
| 2026-05-06 19:08 | 50.05273 | 19.77762 | 2041 ft | 163 kts | 257° |
| 2026-05-06 19:08 | 50.04982 | 19.76128 | 2270 ft | 163 kts | 251° |
| 2026-05-06 19:08 | 50.04666 | 19.74382 | 2253 ft | 176 kts | 252° |
| 2026-05-06 19:08 | 50.04378 | 19.72555 | 1853 ft | 171 kts | 257° |
| 2026-05-06 19:09 | 50.03711 | 19.71729 | 1583 ft | 172 kts | 122° |
| 2026-05-06 19:09 | 50.03694 | 19.73412 | 1678 ft | 162 kts | 72° |
| 2026-05-06 19:09 | 50.04058 | 19.75145 | 1527 ft | 175 kts | 75° |
| 2026-05-06 19:09 | 50.04418 | 19.77008 | 1530 ft | 183 kts | 74° |
| 2026-05-06 19:10 | 50.05022 | 19.78118 | 1679 ft | 142 kts | 281° |
| 2026-05-06 19:10 | 50.04677 | 19.77400 | 934 ft | 76 kts | 207° |
| 2026-05-06 19:10 | 50.04087 | 19.76995 | 1102 ft | 109 kts | 222° |
| 2026-05-06 19:10 | 50.03563 | 19.76035 | 1396 ft | 125 kts | 239° |
| 2026-05-06 19:11 | 50.03206 | 19.74694 | 1592 ft | 146 kts | 251° |
| 2026-05-06 19:11 | 50.02959 | 19.73063 | 1741 ft | 158 kts | 265° |
| 2026-05-06 19:11 | 50.03659 | 19.71884 | 1891 ft | 166 kts | 356° |
| 2026-05-06 19:11 | 50.04585 | 19.72680 | 2064 ft | 147 kts | 64° |
| 2026-05-06 19:12 | 50.04838 | 19.74182 | 1975 ft | 152 kts | 92° |
| 2026-05-06 19:12 | 50.04886 | 19.75933 | 1827 ft | 170 kts | 89° |
| 2026-05-06 19:12 | 50.04982 | 19.77777 | 1790 ft | 177 kts | 82° |
| 2026-05-06 19:12 | 50.04633 | 19.79096 | 1971 ft | 149 kts | 193° |
| 2026-05-06 19:13 | 50.03883 | 19.78010 | 1888 ft | 159 kts | 234° |
| 2026-05-06 19:13 | 50.03448 | 19.76468 | 1819 ft | 175 kts | 253° |
| 2026-05-06 19:13 | 50.03420 | 19.76280 | 1825 ft | 176 kts | 255° |
| 2026-05-06 19:13 | 50.03250 | 19.74285 | 1575 ft | 193 kts | 263° |
| 2026-05-06 19:14 | 50.03265 | 19.72238 | 1609 ft | 187 kts | 284° |
| 2026-05-06 19:14 | 50.04114 | 19.70949 | 1570 ft | 193 kts | 347° |
| 2026-05-06 19:14 | 50.05025 | 19.71882 | 2110 ft | 156 kts | 75° |
| 2026-05-06 19:14 | 50.05056 | 19.73682 | 1817 ft | 180 kts | 97° |
| 2026-05-06 19:15 | 50.04894 | 19.75617 | 1780 ft | 178 kts | 96° |
| 2026-05-06 19:15 | 50.04946 | 19.77500 | 1634 ft | 181 kts | 84° |
| 2026-05-06 19:15 | 50.04552 | 19.78910 | 1948 ft | 155 kts | 163° |
| 2026-05-06 19:15 | 50.03494 | 19.78276 | 1464 ft | 186 kts | 221° |
| 2026-05-06 19:16 | 50.02784 | 19.76644 | 1406 ft | 178 kts | 252° |
| 2026-05-06 19:16 | 50.02634 | 19.74747 | 1464 ft | 174 kts | 267° |
| 2026-05-06 19:16 | 50.02954 | 19.72987 | 1627 ft | 170 kts | 300° |
| 2026-05-06 19:16 | 50.03908 | 19.71963 | 1685 ft | 177 kts | 5° |
| 2026-05-06 19:17 | 50.04633 | 19.73241 | 2045 ft | 162 kts | 75° |
| 2026-05-06 19:17 | 50.04917 | 19.75141 | 1725 ft | 191 kts | 80° |
| 2026-05-06 19:17 | 50.05103 | 19.77097 | 1839 ft | 167 kts | 101° |
| 2026-05-06 19:17 | 50.04264 | 19.77970 | 1975 ft | 158 kts | 200° |
| 2026-05-06 19:18 | 50.03701 | 19.76420 | 1806 ft | 179 kts | 257° |
| 2026-05-06 19:18 | 50.03511 | 19.74489 | 1837 ft | 181 kts | 261° |
| 2026-05-06 19:18 | 50.03569 | 19.72591 | 1708 ft | 188 kts | 294° |
| 2026-05-06 19:18 | 50.04718 | 19.72118 | 1742 ft | 185 kts | 35° |
| 2026-05-06 19:19 | 50.05036 | 19.73812 | 1892 ft | 160 kts | 89° |
| 2026-05-06 19:19 | 50.04984 | 19.75716 | 1512 ft | 188 kts | 94° |
| 2026-05-06 19:19 | 50.04913 | 19.77695 | 1534 ft | 176 kts | 116° |
| 2026-05-06 19:19 | 50.03865 | 19.78169 | 1672 ft | 174 kts | 207° |
| 2026-05-06 19:20 | 50.03344 | 19.76586 | 1673 ft | 174 kts | 263° |
| 2026-05-06 19:20 | 50.03324 | 19.74665 | 1631 ft | 179 kts | 272° |
| 2026-05-06 19:20 | 50.03518 | 19.72743 | 1693 ft | 177 kts | 285° |
| 2026-05-06 19:20 | 50.04550 | 19.71965 | 1636 ft | 188 kts | 19° |
| 2026-05-06 19:21 | 50.05202 | 19.73456 | 1813 ft | 171 kts | 88° |
| 2026-05-06 19:21 | 50.05137 | 19.75370 | 1627 ft | 182 kts | 106° |
| 2026-05-06 19:21 | 50.04185 | 19.76344 | 1643 ft | 178 kts | 187° |
| 2026-05-06 19:21 | 50.03623 | 19.74842 | 1601 ft | 186 kts | 277° |
| 2026-05-06 19:22 | 50.04456 | 19.73795 | 1660 ft | 169 kts | 22° |
| 2026-05-06 19:22 | 50.05269 | 19.75008 | 1467 ft | 163 kts | 54° |
| 2026-05-06 19:22 | 50.05878 | 19.76456 | 1354 ft | 153 kts | 63° |
| 2026-05-06 19:22 | 50.06201 | 19.77952 | 1216 ft | 141 kts | 76° |